Hovedside
METAR-TAF:

METAR-TAF

Lufthavner :

Trollhättan-Vänersborg, Sverige

breddegrad: 58-19N, lengdegrad: 012-21E, høyde over havet: 41 m

Gjeldene værobservasjon

Denne rapporten ble laget for 34 minutter siden, klokken 13:20 UTC
Vind 13 kt fra Øst-nordøst
Temperatur -5°C
Luftfuktighet 68%
Trykk 1040 hPa
Sikt 10 km eller mer
Brutte skyer i en høyde av 2100 ft
lett snø

METAR: ESGT 251320Z 06013KT 9999 -SN BKN021 M05/M10 Q1040

Tid: 14:54 (13:54 UTC)

Varsel

Denne rapporten ble laget for 2 timer og 24 minutter siden, klokken 11:30 UTC
Varsel gyldig fra 25. klokken 12 UTC til 25. klokken 14 UTC
Vind 10 kt fra Nordøst
Sikt 10 km eller mer
Spredte skyer i en høyde av 1500 ft
lett snø
Sannsynlighet 40%
fra 25. klokken 12 UTC til 25. klokken 14 UTC
Sikt: 4000 m
Brutte skyer i en høyde av 1000 ft

TAF: ESGT 251130Z 2512/2514 05010KT 9999 -SN SCT015 PROB40 2512/2514 4000 BKN010

Værobservasjoner og værvarsel for over 4000 flyplasser (METAR- og TAF-rapporter).

Tilgjengelige stasjoner er representert av de røde og gule prikkene på kartet.

Hold musepekeren over prikken for å se navnet på stasjonen.

Klikk så for å se værobservasjoner og -varsler.

For å forandre kartet kan du klikke på den grønne knappen med svart kryss for å zoome inn, på den grønne knappen med strek for å zoome ut, eller på de grønne pilene for å se tilstøtende kart.


METAR-TAF: